Time;durP1;ratioP1;P1;durP2;ratioP2;P2;SDS_P1;SDS_P2;PMS_P1;PMS_P2;Temp;Humidity;BMP_temperature;BMP_pressure;BME280_temperature;BME280_humidity;BME280_pressure;Samples;Min_cycle;Max_cycle;Signal;HPM_P1;HPM_P2
2022/12/10 00:01:07;;;;;;;31.88;16.25;;;-0.20;99.90;;;;;;5106588;28;20429;-88
2022/12/10 00:03:33;;;;;;;29.98;14.98;;;-0.20;99.90;;;;;;5073648;28;20421;-87
2022/12/10 00:06:01;;;;;;;28.33;16.33;;;-0.20;99.90;;;;;;5090381;28;20089;-89
2022/12/10 00:08:27;;;;;;;32.95;16.58;;;-0.30;99.90;;;;;;5073409;28;20459;-89
2022/12/10 00:10:52;;;;;;;33.78;15.82;;;-0.30;99.90;;;;;;5107241;28;20032;-89
2022/12/10 00:13:18;;;;;;;35.22;17.33;;;-0.30;99.90;;;;;;5106707;28;20039;-88
2022/12/10 00:15:44;;;;;;;31.40;15.82;;;-0.30;99.90;;;;;;5089684;28;20043;-89
2022/12/10 00:18:09;;;;;;;30.00;16.52;;;-0.30;99.90;;;;;;5106892;28;20088;-89
2022/12/10 00:20:36;;;;;;;35.30;16.75;;;-0.30;99.90;;;;;;5072656;28;20075;-88
2022/12/10 00:23:02;;;;;;;31.35;15.88;;;-0.30;99.90;;;;;;5089994;28;20051;-88
2022/12/10 00:25:28;;;;;;;31.20;15.73;;;-0.30;99.90;;;;;;5073205;28;20529;-88
2022/12/10 00:27:54;;;;;;;31.30;15.80;;;-0.30;99.90;;;;;;5107257;28;20077;-89
2022/12/10 00:30:19;;;;;;;33.25;17.08;;;-0.30;99.90;;;;;;5072720;28;20040;-88
2022/12/10 00:32:45;;;;;;;35.47;16.80;;;-0.30;99.90;;;;;;5089243;28;20039;-88
2022/12/10 00:35:10;;;;;;;33.33;17.13;;;-0.30;99.90;;;;;;5071934;28;20040;-89
2022/12/10 00:37:36;;;;;;;33.08;17.42;;;-0.30;99.90;;;;;;5089808;28;20131;-89
2022/12/10 00:40:02;;;;;;;37.97;16.60;;;-0.30;99.90;;;;;;5106644;28;20100;-89
2022/12/10 00:42:28;;;;;;;35.58;17.38;;;-0.30;99.90;;;;;;5072747;28;20046;-89
2022/12/10 00:44:53;;;;;;;32.83;16.95;;;-0.20;99.90;;;;;;5106570;28;20036;-88
2022/12/10 00:47:19;;;;;;;33.65;16.52;;;-0.20;99.90;;;;;;5106263;28;20035;-88
2022/12/10 00:49:45;;;;;;;29.85;15.43;;;-0.20;99.90;;;;;;5123391;27;20036;-88
2022/12/10 00:52:10;;;;;;;33.17;16.15;;;-0.20;99.90;;;;;;5106118;28;20043;-88
2022/12/10 00:54:36;;;;;;;34.30;17.52;;;-0.20;99.90;;;;;;5123096;27;20709;-88
2022/12/10 00:57:01;;;;;;;29.23;15.00;;;-0.20;99.90;;;;;;5072388;28;20082;-89
2022/12/10 00:59:27;;;;;;;29.05;16.17;;;-0.20;99.90;;;;;;5089835;28;20043;-88
2022/12/10 01:01:52;;;;;;;32.10;16.02;;;-0.20;99.90;;;;;;5089525;28;20132;-88
2022/12/10 01:04:18;;;;;;;32.42;17.00;;;-0.20;99.90;;;;;;5106151;28;20122;-88
2022/12/10 01:06:49;;;;;;;32.97;16.73;;;-0.20;99.90;;;;;;5106160;28;20088;-88
2022/12/10 01:09:18;;;;;;;38.88;19.70;;;-0.10;99.90;;;;;;5106606;28;20040;-88
2022/12/10 01:11:45;;;;;;;36.90;18.15;;;-0.10;99.90;;;;;;5075137;28;20036;-88
2022/12/10 01:14:14;;;;;;;37.72;19.38;;;-0.10;99.90;;;;;;5076101;28;20089;-88
2022/12/10 01:16:39;;;;;;;32.53;16.77;;;-0.10;99.90;;;;;;5093053;28;20063;-90
2022/12/10 01:19:06;;;;;;;35.38;17.33;;;-0.10;99.90;;;;;;5110671;28;20036;-88
2022/12/10 01:21:31;;;;;;;34.58;18.13;;;0.00;99.90;;;;;;5110221;28;20032;-88
2022/12/10 01:23:58;;;;;;;35.85;18.88;;;0.00;99.90;;;;;;5076367;28;20055;-88
2022/12/10 01:26:27;;;;;;;34.85;18.15;;;0.00;99.90;;;;;;5093272;28;20061;-88
2022/12/10 01:28:54;;;;;;;37.28;19.02;;;0.00;99.90;;;;;;5076263;28;20039;-87
2022/12/10 01:31:22;;;;;;;45.35;19.70;;;0.00;99.90;;;;;;5076034;28;20512;-89
2022/12/10 01:33:48;;;;;;;35.50;17.15;;;0.00;99.90;;;;;;5109836;28;20040;-89
2022/12/10 01:36:20;;;;;;;36.65;17.92;;;0.10;99.90;;;;;;5092449;28;20146;-89
2022/12/10 01:38:46;;;;;;;39.03;17.55;;;0.10;99.90;;;;;;5076558;28;20123;-88
2022/12/10 01:41:24;;;;;;;35.65;17.52;;;0.10;99.90;;;;;;5076172;28;20032;-87
2022/12/10 01:44:00;;;;;;;39.03;18.63;;;0.10;99.90;;;;;;5089616;28;20072;-88
2022/12/10 01:46:34;;;;;;;35.15;18.65;;;0.10;99.90;;;;;;5089559;28;20094;-89
2022/12/10 01:49:02;;;;;;;37.35;19.45;;;0.10;99.90;;;;;;5055968;28;20032;-89
2022/12/10 01:51:30;;;;;;;35.58;18.48;;;0.10;99.90;;;;;;5089270;28;20068;-89
2022/12/10 01:53:56;;;;;;;37.38;18.48;;;0.10;99.90;;;;;;5055199;28;20029;-89
2022/12/10 01:56:23;;;;;;;37.35;18.30;;;0.10;99.90;;;;;;5055061;28;20037;-89
2022/12/10 01:58:51;;;;;;;35.80;16.77;;;0.10;99.90;;;;;;5056564;28;20494;-89
2022/12/10 02:01:36;;;;;;;37.53;18.38;;;0.10;99.90;;;;;;5106167;28;20040;-88
2022/12/10 02:04:15;;;;;;;45.03;20.80;;;0.10;99.90;;;;;;5072832;28;20041;-89
2022/12/10 02:07:23;;;;;;;40.05;19.75;;;0.10;99.90;;;;;;5089093;28;20048;-88
2022/12/10 02:10:07;;;;;;;39.30;20.75;;;0.20;99.90;;;;;;5055897;28;20040;-89
2022/12/10 02:12:58;;;;;;;39.78;19.63;;;0.20;99.90;;;;;;5088489;28;20032;-90
2022/12/10 02:15:39;;;;;;;43.63;20.05;;;0.10;99.90;;;;;;5055357;28;20036;-88
2022/12/10 02:18:21;;;;;;;39.97;19.00;;;0.20;99.90;;;;;;5055800;28;20090;-88
2022/12/10 02:20:54;;;;;;;42.40;20.23;;;0.20;99.90;;;;;;5072529;28;20094;-88
2022/12/10 02:23:31;;;;;;;37.58;17.88;;;0.20;99.90;;;;;;5070615;28;20067;-88
2022/12/10 02:26:04;;;;;;;43.42;18.30;;;0.20;99.90;;;;;;5072342;28;20493;-89
2022/12/10 02:28:55;;;;;;;38.08;19.80;;;0.20;99.90;;;;;;5055159;28;20028;-88
2022/12/10 02:31:26;;;;;;;38.75;19.63;;;0.20;99.90;;;;;;5055027;28;20128;-89
2022/12/10 02:33:57;;;;;;;43.63;22.33;;;0.10;99.90;;;;;;5071101;28;20036;-89
2022/12/10 02:36:25;;;;;;;43.28;19.50;;;0.10;99.90;;;;;;5054985;28;20063;-88
2022/12/10 02:38:52;;;;;;;40.33;20.77;;;0.20;99.90;;;;;;5072243;28;20036;-88
2022/12/10 02:41:27;;;;;;;44.88;22.38;;;0.10;99.90;;;;;;5071648;28;20493;-88
2022/12/10 02:43:56;;;;;;;39.45;19.30;;;0.10;99.90;;;;;;5054994;28;20072;-88
2022/12/10 02:46:24;;;;;;;41.17;19.67;;;0.10;99.90;;;;;;5054771;28;20119;-89
2022/12/10 02:48:50;;;;;;;40.85;19.95;;;0.10;99.90;;;;;;5054986;28;20062;-89
2022/12/10 02:51:16;;;;;;;40.17;19.20;;;0.10;99.90;;;;;;5071646;28;20032;-89
2022/12/10 02:53:43;;;;;;;41.38;20.05;;;0.10;99.90;;;;;;5087955;28;20040;-89
2022/12/10 02:56:30;;;;;;;33.17;17.65;;;0.10;99.90;;;;;;5053973;28;20032;-89
2022/12/10 02:59:15;;;;;;;41.05;19.13;;;0.10;99.90;;;;;;5054759;28;20042;-89
2022/12/10 03:02:06;;;;;;;37.97;19.45;;;0.00;99.90;;;;;;5054577;28;20032;-89
2022/12/10 03:04:56;;;;;;;42.60;19.92;;;0.00;99.90;;;;;;5088517;28;20089;-89
2022/12/10 03:07:32;;;;;;;40.00;20.83;;;0.00;99.90;;;;;;5054061;28;20048;-88
2022/12/10 03:10:27;;;;;;;40.10;17.98;;;0.00;99.90;;;;;;5071449;28;20499;-89
2022/12/10 03:13:03;;;;;;;38.45;19.27;;;0.00;99.90;;;;;;5048117;28;20044;-88
2022/12/10 03:15:33;;;;;;;38.72;21.00;;;-0.10;99.90;;;;;;5104327;28;20044;-88
2022/12/10 03:18:03;;;;;;;41.03;19.73;;;-0.10;99.90;;;;;;5071180;28;20089;-88
2022/12/10 03:20:32;;;;;;;37.67;19.67;;;-0.10;99.90;;;;;;5071633;28;20044;-88
2022/12/10 03:22:57;;;;;;;40.03;20.88;;;-0.10;99.90;;;;;;5053652;28;20040;-88
2022/12/10 03:25:26;;;;;;;41.47;20.58;;;-0.10;99.90;;;;;;5054479;28;20414;-88
2022/12/10 03:27:55;;;;;;;48.60;22.33;;;-0.10;99.90;;;;;;5070574;28;20115;-88
2022/12/10 03:30:21;;;;;;;47.53;21.17;;;-0.10;99.90;;;;;;5072376;28;20036;-88
2022/12/10 03:32:48;;;;;;;49.85;22.15;;;-0.10;99.90;;;;;;5090199;28;20062;-88
2022/12/10 03:35:15;;;;;;;48.58;22.48;;;-0.20;99.90;;;;;;5090708;28;20048;-89
2022/12/10 03:37:41;;;;;;;46.47;20.40;;;-0.20;99.90;;;;;;5073866;28;20493;-89
2022/12/10 03:40:08;;;;;;;46.38;21.83;;;-0.20;99.90;;;;;;5091128;28;20051;-89
2022/12/10 03:42:36;;;;;;;50.25;23.15;;;-0.20;99.90;;;;;;5073274;28;20545;-88
2022/12/10 03:45:02;;;;;;;42.50;21.88;;;-0.20;99.90;;;;;;5091026;28;20489;-88
2022/12/10 03:47:28;;;;;;;43.50;19.25;;;-0.20;99.90;;;;;;5090725;28;20469;-89
2022/12/10 03:49:53;;;;;;;39.83;20.27;;;-0.20;99.90;;;;;;5073965;28;20086;-89
2022/12/10 03:52:19;;;;;;;40.80;20.42;;;-0.20;99.90;;;;;;5089830;28;20066;-89
2022/12/10 03:54:44;;;;;;;44.42;20.58;;;-0.20;99.90;;;;;;5090053;28;20039;-88
2022/12/10 03:57:10;;;;;;;41.40;19.15;;;-0.20;99.90;;;;;;5072763;28;20150;-89
2022/12/10 03:59:35;;;;;;;49.80;19.98;;;-0.20;99.90;;;;;;5073867;28;20044;-88
2022/12/10 04:02:01;;;;;;;46.92;21.33;;;-0.20;99.90;;;;;;5073417;28;20040;-89
2022/12/10 04:04:27;;;;;;;43.47;20.45;;;-0.20;99.90;;;;;;5073709;28;20145;-89
2022/12/10 04:06:52;;;;;;;44.08;19.63;;;-0.30;99.90;;;;;;5090077;28;20094;-88
2022/12/10 04:09:18;;;;;;;44.80;21.27;;;-0.30;99.90;;;;;;5090160;28;20040;-88
2022/12/10 04:11:44;;;;;;;41.30;20.17;;;-0.30;99.90;;;;;;5089652;28;20040;-88
2022/12/10 04:16:55;;;;;;;41.60;20.52;;;-0.30;99.90;;;;;;5089532;28;20040;-89
2022/12/10 04:19:21;;;;;;;41.13;19.90;;;-0.30;99.90;;;;;;5073844;28;20047;-88
2022/12/10 04:27:35;;;;;;;43.33;19.45;;;-0.40;99.90;;;;;;5090163;28;20043;-89
2022/12/10 04:30:01;;;;;;;42.13;20.10;;;-0.40;99.90;;;;;;5073134;28;20036;-88
2022/12/10 04:32:28;;;;;;;39.22;18.02;;;-0.50;99.90;;;;;;5072312;28;20063;-87
2022/12/10 04:34:54;;;;;;;45.22;21.90;;;-0.50;99.90;;;;;;5072665;28;20052;-87
2022/12/10 04:37:20;;;;;;;37.88;19.80;;;-0.50;99.90;;;;;;5072580;28;20044;-87
2022/12/10 04:39:47;;;;;;;40.13;19.17;;;-0.50;99.90;;;;;;5073357;28;20043;-88
2022/12/10 04:42:13;;;;;;;46.08;22.15;;;-0.50;99.90;;;;;;5072542;28;20044;-88
2022/12/10 04:44:38;;;;;;;47.60;21.73;;;-0.50;99.90;;;;;;5072715;28;20127;-87
2022/12/10 04:47:07;;;;;;;46.65;20.77;;;-0.60;99.90;;;;;;5088914;28;20085;-87
2022/12/10 04:49:33;;;;;;;43.50;21.25;;;-0.50;99.90;;;;;;5073246;28;20681;-87
2022/12/10 04:51:59;;;;;;;41.83;19.48;;;-0.50;99.90;;;;;;5088984;28;20500;-87
2022/12/10 04:54:25;;;;;;;43.17;20.55;;;-0.50;99.90;;;;;;5072481;28;20036;-87
2022/12/10 04:56:51;;;;;;;41.22;18.65;;;-0.50;99.90;;;;;;5089044;28;20120;-87
2022/12/10 04:59:16;;;;;;;43.33;21.17;;;-0.60;99.90;;;;;;5072905;28;20109;-87
2022/12/10 05:01:42;;;;;;;46.50;20.17;;;-0.60;99.90;;;;;;5089185;28;20039;-88
2022/12/10 05:04:11;;;;;;;38.72;19.38;;;-0.60;99.90;;;;;;5089355;28;20055;-87
2022/12/10 05:06:36;;;;;;;44.55;19.45;;;-0.60;99.90;;;;;;5072675;28;20039;-88
2022/12/10 05:09:03;;;;;;;41.15;20.00;;;-0.60;99.90;;;;;;5072354;28;20036;-87
2022/12/10 05:11:30;;;;;;;44.60;20.27;;;-0.60;99.90;;;;;;5072469;28;20040;-87
2022/12/10 05:13:57;;;;;;;42.83;20.77;;;-0.60;99.90;;;;;;5088787;28;20032;-87
2022/12/10 05:16:24;;;;;;;43.03;19.08;;;-0.60;99.90;;;;;;5072030;28;20036;-86
2022/12/10 05:18:50;;;;;;;45.40;21.30;;;-0.60;99.90;;;;;;5089747;28;20036;-87
2022/12/10 05:21:18;;;;;;;46.75;20.73;;;-0.60;99.90;;;;;;5089844;28;20051;-87
2022/12/10 05:23:48;;;;;;;40.63;19.30;;;-0.60;99.90;;;;;;5072089;28;20040;-87
2022/12/10 05:26:17;;;;;;;47.50;20.38;;;-0.70;99.90;;;;;;5072167;28;20043;-88
2022/12/10 05:28:45;;;;;;;49.10;22.23;;;-0.70;99.90;;;;;;5089456;28;20110;-88
2022/12/10 05:31:20;;;;;;;46.55;21.25;;;-0.70;99.90;;;;;;5089172;28;20040;-88
2022/12/10 05:33:46;;;;;;;45.53;22.48;;;-0.70;99.90;;;;;;5072156;28;20042;-87
2022/12/10 05:36:14;;;;;;;42.60;19.20;;;-0.70;99.90;;;;;;5071513;28;20032;-88
2022/12/10 05:38:40;;;;;;;46.08;22.38;;;-0.70;99.90;;;;;;5071712;28;20048;-88
2022/12/10 05:41:09;;;;;;;46.60;23.13;;;-0.70;99.90;;;;;;5088853;28;20047;-88
2022/12/10 05:43:34;;;;;;;47.83;22.38;;;-0.70;99.90;;;;;;5070930;28;20040;-88
2022/12/10 05:46:02;;;;;;;48.65;21.30;;;-0.70;99.90;;;;;;5072391;28;20097;-87
2022/12/10 05:48:28;;;;;;;42.60;21.35;;;-0.70;99.90;;;;;;5089323;28;20044;-87
2022/12/10 05:50:54;;;;;;;44.90;19.73;;;-0.70;99.90;;;;;;5089475;28;20059;-87
2022/12/10 05:53:20;;;;;;;47.75;21.05;;;-0.80;99.90;;;;;;5071701;28;20481;-87
2022/12/10 05:55:45;;;;;;;44.33;19.83;;;-0.80;99.90;;;;;;5088275;28;20122;-88
2022/12/10 05:58:11;;;;;;;48.22;22.20;;;-0.70;99.90;;;;;;5073663;28;20093;-87
2022/12/10 06:00:39;;;;;;;51.13;22.60;;;-0.80;99.90;;;;;;5090519;28;20440;-87
2022/12/10 06:03:05;;;;;;;54.33;23.17;;;-0.70;99.90;;;;;;5089994;28;20619;-88
2022/12/10 06:05:39;;;;;;;50.38;23.75;;;-0.80;99.90;;;;;;5074153;28;20040;-87
2022/12/10 06:08:04;;;;;;;49.65;21.38;;;-0.80;99.90;;;;;;5075459;28;20105;-87
2022/12/10 06:10:30;;;;;;;46.55;22.42;;;-0.80;99.90;;;;;;5092471;28;20488;-87
2022/12/10 06:12:56;;;;;;;49.63;19.98;;;-0.80;99.90;;;;;;5075892;28;20397;-88
2022/12/10 06:15:21;;;;;;;48.45;21.35;;;-0.80;99.90;;;;;;5075857;28;20043;-87
2022/12/10 06:17:47;;;;;;;43.72;22.42;;;-0.80;99.90;;;;;;5074902;28;20535;-87
2022/12/10 06:20:12;;;;;;;47.85;22.40;;;-0.80;99.90;;;;;;5075913;28;20043;-88
2022/12/10 06:22:38;;;;;;;47.30;22.67;;;-0.80;99.90;;;;;;5091933;28;20047;-87
2022/12/10 06:25:05;;;;;;;48.53;21.38;;;-0.80;99.90;;;;;;5092163;28;20449;-86
2022/12/10 06:27:31;;;;;;;42.65;20.50;;;-0.80;99.90;;;;;;5075817;28;20393;-88
2022/12/10 06:29:57;;;;;;;44.83;22.45;;;-0.90;99.90;;;;;;5091956;28;20036;-88
2022/12/10 06:32:22;;;;;;;52.95;21.60;;;-0.90;99.90;;;;;;5075263;28;20040;-87
2022/12/10 06:34:48;;;;;;;49.35;22.00;;;-0.90;99.90;;;;;;5092093;28;20040;-87
2022/12/10 06:37:14;;;;;;;42.92;21.00;;;-0.90;99.90;;;;;;5091499;28;20044;-88
2022/12/10 06:39:39;;;;;;;44.63;21.45;;;-0.90;99.90;;;;;;5074679;28;20078;-88
2022/12/10 06:42:05;;;;;;;46.47;23.15;;;-0.90;99.90;;;;;;5073856;28;20054;-88
2022/12/10 06:44:31;;;;;;;46.47;22.48;;;-0.90;99.90;;;;;;5074817;28;20047;-88
2022/12/10 06:46:57;;;;;;;48.13;20.92;;;-1.00;99.90;;;;;;5108969;28;20040;-88
2022/12/10 06:49:22;;;;;;;48.75;21.00;;;-0.90;99.90;;;;;;5125440;27;20036;-87
2022/12/10 06:51:48;;;;;;;43.15;20.30;;;-0.90;99.90;;;;;;5108842;28;20148;-87
2022/12/10 06:54:14;;;;;;;46.85;20.67;;;-1.00;99.90;;;;;;5125386;27;20108;-87
2022/12/10 06:56:39;;;;;;;40.78;20.42;;;-1.00;99.90;;;;;;5091468;28;20051;-87
2022/12/10 06:59:08;;;;;;;42.55;19.88;;;-1.00;99.90;;;;;;5074343;28;20047;-87
2022/12/10 07:01:34;;;;;;;42.80;19.85;;;-1.00;99.90;;;;;;5091768;28;20044;-87
2022/12/10 07:03:59;;;;;;;41.05;19.67;;;-1.00;99.90;;;;;;5074369;28;20044;-87
2022/12/10 07:06:27;;;;;;;47.97;21.50;;;-0.90;99.90;;;;;;5108627;28;20043;-88
2022/12/10 07:08:54;;;;;;;51.33;22.15;;;-0.90;99.90;;;;;;5090715;28;20054;-87
2022/12/10 07:11:21;;;;;;;41.15;21.85;;;-1.00;99.90;;;;;;5074731;28;20032;-86
2022/12/10 07:13:47;;;;;;;49.38;23.38;;;-0.90;99.90;;;;;;5091630;28;20489;-86
2022/12/10 07:16:14;;;;;;;44.17;23.00;;;-0.90;99.90;;;;;;5107865;28;20047;-87
2022/12/10 07:18:40;;;;;;;49.63;24.25;;;-0.90;99.90;;;;;;5090846;28;20051;-86
2022/12/10 07:21:21;;;;;;;48.95;23.35;;;-0.90;99.90;;;;;;5108493;28;20393;-87
2022/12/10 07:23:47;;;;;;;48.50;21.75;;;-0.90;99.90;;;;;;5105124;28;20090;-87
2022/12/10 07:26:13;;;;;;;47.15;23.38;;;-0.90;99.90;;;;;;5090945;28;20075;-86
2022/12/10 07:28:39;;;;;;;48.03;22.63;;;-1.00;99.90;;;;;;5091201;28;20083;-87
2022/12/10 07:31:07;;;;;;;49.45;22.67;;;-1.00;99.90;;;;;;5090683;28;20040;-86
2022/12/10 07:33:33;;;;;;;47.72;21.90;;;-0.90;99.90;;;;;;5091176;28;20385;-87
2022/12/10 07:36:02;;;;;;;49.55;21.25;;;-0.90;99.90;;;;;;5125120;27;20042;-87
2022/12/10 07:38:28;;;;;;;46.28;22.33;;;-0.90;99.90;;;;;;5090496;28;20036;-87
2022/12/10 07:40:53;;;;;;;46.88;19.33;;;-0.90;99.90;;;;;;5091254;28;20557;-87
2022/12/10 07:43:19;;;;;;;47.70;21.60;;;-0.90;99.90;;;;;;5073543;28;20566;-87
2022/12/10 07:45:44;;;;;;;59.45;22.23;;;-0.90;99.90;;;;;;5090607;28;20040;-88
2022/12/10 07:48:10;;;;;;;43.95;21.80;;;-0.90;99.90;;;;;;5122550;27;20046;-86
2022/12/10 07:50:36;;;;;;;47.88;22.50;;;-0.80;99.90;;;;;;5106074;28;20040;-87
2022/12/10 07:53:02;;;;;;;49.70;23.80;;;-0.80;99.90;;;;;;5072367;28;20032;-87
2022/12/10 07:55:27;;;;;;;52.13;24.48;;;-0.80;99.90;;;;;;5089879;28;20044;-86
2022/12/10 07:57:53;;;;;;;48.80;22.17;;;-0.80;99.90;;;;;;5072081;28;20032;-87
2022/12/10 08:00:18;;;;;;;49.67;23.20;;;-0.80;99.90;;;;;;5089548;28;20044;-86
2022/12/10 08:02:44;;;;;;;42.42;20.10;;;-0.80;99.90;;;;;;5072405;28;20093;-87
2022/12/10 08:05:10;;;;;;;48.53;23.05;;;-0.70;99.90;;;;;;5089407;28;20128;-86
2022/12/10 08:07:36;;;;;;;50.45;23.38;;;-0.70;99.90;;;;;;5089586;28;20054;-87
2022/12/10 08:10:02;;;;;;;48.97;21.55;;;-0.70;99.90;;;;;;5089348;28;20036;-87
2022/12/10 08:12:27;;;;;;;55.55;22.23;;;-0.70;99.90;;;;;;5106371;28;20028;-86
2022/12/10 08:14:53;;;;;;;51.70;23.33;;;-0.60;99.90;;;;;;5089823;28;20185;-87
2022/12/10 08:17:18;;;;;;;51.20;22.50;;;-0.60;99.90;;;;;;5089388;28;20515;-87
2022/12/10 08:19:44;;;;;;;44.03;21.02;;;-0.60;99.90;;;;;;5071992;28;20524;-87
2022/12/10 08:22:09;;;;;;;49.97;23.10;;;-0.60;99.90;;;;;;5088487;28;20114;-87
2022/12/10 08:24:35;;;;;;;49.88;23.02;;;-0.60;99.90;;;;;;5089148;28;20122;-87
2022/12/10 08:27:01;;;;;;;50.38;22.98;;;-0.60;99.90;;;;;;5089340;28;20463;-87
2022/12/10 08:29:26;;;;;;;47.60;21.70;;;-0.50;99.90;;;;;;5071479;28;20473;-87
2022/12/10 08:31:52;;;;;;;49.38;22.08;;;-0.50;99.90;;;;;;5106183;28;20043;-87
2022/12/10 08:34:18;;;;;;;47.53;23.27;;;-0.50;99.90;;;;;;5089296;28;20087;-86
2022/12/10 08:36:45;;;;;;;47.33;22.95;;;-0.50;99.90;;;;;;5088381;28;20496;-87
2022/12/10 08:39:14;;;;;;;49.15;20.60;;;-0.50;99.90;;;;;;5072318;28;20031;-86
2022/12/10 08:41:41;;;;;;;51.78;23.88;;;-0.50;99.90;;;;;;5087032;28;20044;-87
2022/12/10 08:44:06;;;;;;;48.25;23.27;;;-0.50;99.90;;;;;;5072175;28;20047;-87
2022/12/10 08:46:32;;;;;;;48.42;24.75;;;-0.50;99.90;;;;;;5089147;28;20032;-87
2022/12/10 08:48:58;;;;;;;51.67;23.83;;;-0.40;99.90;;;;;;5072212;28;20051;-87
2022/12/10 08:51:25;;;;;;;50.25;23.60;;;-0.40;99.90;;;;;;5122627;27;20508;-87
2022/12/10 08:53:50;;;;;;;49.63;24.38;;;-0.40;99.90;;;;;;5072006;28;20072;-87
2022/12/10 08:56:16;;;;;;;49.60;23.23;;;-0.40;99.90;;;;;;5088462;28;20091;-87
2022/12/10 08:58:42;;;;;;;50.05;23.95;;;-0.30;99.90;;;;;;5088719;28;20098;-87
2022/12/10 09:01:10;;;;;;;48.63;24.25;;;-0.30;99.90;;;;;;5072742;28;20520;-88
2022/12/10 09:03:37;;;;;;;44.67;21.13;;;-0.30;99.90;;;;;;5096157;28;20040;-87
2022/12/10 09:06:15;;;;;;;44.00;21.67;;;-0.20;99.90;;;;;;5109106;28;20044;-87
2022/12/10 09:08:41;;;;;;;45.28;21.02;;;-0.20;99.90;;;;;;5092067;28;20057;-87
2022/12/10 09:11:12;;;;;;;49.08;23.15;;;-0.20;99.90;;;;;;5108940;28;20047;-88
2022/12/10 09:13:38;;;;;;;44.50;22.08;;;-0.20;99.90;;;;;;5092253;28;20036;-87
2022/12/10 09:16:05;;;;;;;55.15;25.02;;;-0.10;99.90;;;;;;5109027;28;20039;-87
2022/12/10 09:18:30;;;;;;;47.65;23.00;;;-0.10;99.90;;;;;;5091413;28;20492;-86
2022/12/10 09:20:56;;;;;;;48.83;22.38;;;0.00;99.90;;;;;;5108891;28;20043;-87
2022/12/10 09:23:22;;;;;;;52.42;24.00;;;0.00;99.90;;;;;;5108860;28;20092;-87
2022/12/10 09:25:48;;;;;;;45.75;22.65;;;0.10;99.90;;;;;;5091957;28;20042;-87
2022/12/10 09:28:13;;;;;;;50.63;23.35;;;0.10;99.90;;;;;;5109456;28;20039;-87
2022/12/10 09:30:39;;;;;;;52.03;25.25;;;0.20;99.90;;;;;;5108674;28;20484;-86
2022/12/10 09:33:05;;;;;;;46.80;22.92;;;0.20;99.90;;;;;;5093726;28;20389;-87
2022/12/10 09:35:30;;;;;;;49.35;23.58;;;0.30;99.90;;;;;;5096717;28;20043;-87
2022/12/10 09:37:56;;;;;;;45.28;22.27;;;0.30;99.90;;;;;;5113038;27;20558;-87
2022/12/10 09:40:34;;;;;;;53.85;24.83;;;0.30;99.90;;;;;;5113474;28;20097;-87
2022/12/10 09:43:19;;;;;;;47.55;23.77;;;0.40;99.90;;;;;;5095922;28;20046;-87
2022/12/10 09:46:08;;;;;;;47.15;23.42;;;0.40;99.90;;;;;;5096257;28;20131;-87
2022/12/10 09:48:53;;;;;;;46.58;23.00;;;0.50;99.90;;;;;;5079159;28;20043;-87
2022/12/10 09:51:26;;;;;;;43.00;21.90;;;0.50;99.90;;;;;;5096128;28;20131;-87
2022/12/10 09:53:58;;;;;;;48.72;22.77;;;0.60;99.90;;;;;;5095925;28;20057;-87
2022/12/10 09:56:34;;;;;;;50.80;23.40;;;0.60;99.90;;;;;;5113343;28;20038;-87
2022/12/10 09:59:06;;;;;;;45.22;20.60;;;0.70;99.90;;;;;;5112672;28;20067;-87
2022/12/10 10:01:34;;;;;;;49.97;24.67;;;0.70;99.90;;;;;;5113581;28;20044;-87
2022/12/10 10:04:00;;;;;;;45.83;23.13;;;0.80;99.90;;;;;;5095636;28;20036;-87
2022/12/10 10:06:27;;;;;;;52.92;22.95;;;0.80;99.90;;;;;;5095725;28;20047;-87
2022/12/10 10:08:56;;;;;;;49.20;23.42;;;0.80;99.90;;;;;;5096155;28;20065;-88
2022/12/10 10:11:29;;;;;;;46.97;22.35;;;0.80;99.90;;;;;;5112542;28;20119;-88
2022/12/10 10:13:59;;;;;;;48.47;22.48;;;0.80;99.90;;;;;;5112891;28;20046;-88
2022/12/10 10:16:33;;;;;;;53.00;24.35;;;0.80;99.90;;;;;;5096202;28;20423;-87
2022/12/10 10:19:11;;;;;;;56.42;25.13;;;0.80;99.90;;;;;;5095253;28;20039;-87
2022/12/10 10:21:41;;;;;;;49.22;25.35;;;0.80;99.90;;;;;;5113153;28;20067;-87
2022/12/10 10:24:12;;;;;;;44.10;20.95;;;0.80;99.90;;;;;;5097601;28;20032;-87
2022/12/10 10:26:38;;;;;;;44.13;21.25;;;0.80;99.90;;;;;;5091760;28;20509;-87
2022/12/10 10:29:10;;;;;;;47.45;23.67;;;0.80;99.90;;;;;;5092352;28;20043;-87
2022/12/10 10:31:40;;;;;;;48.03;22.90;;;0.70;99.90;;;;;;5074904;28;20036;-87
2022/12/10 10:34:22;;;;;;;40.60;18.65;;;0.60;99.90;;;;;;5092095;28;20081;-88
2022/12/10 10:36:54;;;;;;;43.45;22.05;;;0.50;99.90;;;;;;5091716;28;20105;-89
2022/12/10 10:39:30;;;;;;;47.05;22.15;;;0.40;99.90;;;;;;5108583;28;20069;-88
2022/12/10 10:41:58;;;;;;;47.38;23.60;;;0.40;99.90;;;;;;5092520;28;20397;-88
2022/12/10 10:44:33;;;;;;;46.92;23.42;;;0.40;99.90;;;;;;5073876;28;20040;-88
2022/12/10 10:46:59;;;;;;;52.33;23.27;;;0.30;99.90;;;;;;5090851;28;20032;-87
2022/12/10 10:49:26;;;;;;;49.70;23.48;;;0.30;99.90;;;;;;5125164;27;20042;-87
2022/12/10 10:52:16;;;;;;;51.00;24.23;;;0.30;99.90;;;;;;5125667;27;20036;-87
2022/12/10 10:54:43;;;;;;;51.70;23.00;;;0.30;99.90;;;;;;5091312;28;20040;-87
2022/12/10 10:57:17;;;;;;;46.65;20.83;;;0.30;99.90;;;;;;5091305;28;20416;-88
2022/12/10 10:59:43;;;;;;;47.75;22.10;;;0.30;99.90;;;;;;5074448;28;20552;-87
2022/12/10 11:02:24;;;;;;;58.63;26.95;;;0.30;99.90;;;;;;5074601;28;20046;-87
2022/12/10 11:04:52;;;;;;;50.28;23.40;;;0.30;99.90;;;;;;5074366;28;20047;-88
2022/12/10 11:07:33;;;;;;;47.70;20.67;;;0.30;99.90;;;;;;5091186;28;20040;-88
2022/12/10 11:09:59;;;;;;;53.10;25.20;;;0.30;99.90;;;;;;5091337;28;20079;-88
2022/12/10 11:12:32;;;;;;;50.75;23.48;;;0.20;99.90;;;;;;5074106;28;20348;-87
2022/12/10 11:14:58;;;;;;;52.40;23.25;;;0.20;99.90;;;;;;5074241;28;20135;-87
2022/12/10 11:17:25;;;;;;;53.13;24.63;;;0.20;99.90;;;;;;5091201;28;20122;-88
2022/12/10 11:20:01;;;;;;;55.33;24.00;;;0.20;99.90;;;;;;5073983;28;20040;-87
2022/12/10 11:22:32;;;;;;;45.13;22.20;;;0.20;99.90;;;;;;5091492;28;20036;-87
2022/12/10 11:24:59;;;;;;;53.75;24.63;;;0.20;99.90;;;;;;5087721;28;20041;-87
2022/12/10 11:27:50;;;;;;;54.05;25.25;;;0.20;99.90;;;;;;5087241;28;20482;-87
2022/12/10 11:30:22;;;;;;;50.83;22.27;;;0.20;99.90;;;;;;5070603;28;20123;-87
2022/12/10 11:33:26;;;;;;;57.45;24.30;;;0.20;99.90;;;;;;5086761;28;20046;-88
2022/12/10 11:35:57;;;;;;;49.42;22.27;;;0.20;99.90;;;;;;5002790;28;20057;-88
2022/12/10 11:38:50;;;;;;;61.75;26.67;;;0.10;99.90;;;;;;5090177;28;20089;-88
2022/12/10 11:41:22;;;;;;;55.00;23.83;;;0.10;99.90;;;;;;5073016;28;20498;-88
2022/12/10 11:43:56;;;;;;;54.88;24.15;;;0.10;99.90;;;;;;5090223;28;20044;-88
2022/12/10 11:46:43;;;;;;;50.53;20.95;;;0.10;99.90;;;;;;5090494;28;20177;-89
2022/12/10 11:49:28;;;;;;;54.83;24.63;;;0.10;99.90;;;;;;5074101;28;20078;-88
2022/12/10 11:52:16;;;;;;;47.22;21.15;;;0.10;99.90;;;;;;5081937;28;20038;-88
2022/12/10 11:55:06;;;;;;;47.53;20.60;;;0.00;99.90;;;;;;5072347;28;20433;-87
2022/12/10 11:57:59;;;;;;;45.00;20.08;;;0.10;99.90;;;;;;5113000;27;20086;-87
2022/12/10 12:00:29;;;;;;;39.88;19.15;;;0.00;99.90;;;;;;5089078;28;20131;-87
2022/12/10 12:03:16;;;;;;;48.35;20.85;;;0.00;99.90;;;;;;5089585;28;20133;-87
2022/12/10 12:06:04;;;;;;;43.45;17.70;;;0.00;99.90;;;;;;5088486;28;20085;-87
2022/12/10 12:09:03;;;;;;;43.20;20.60;;;0.00;99.90;;;;;;5112466;27;20123;-87
2022/12/10 12:11:55;;;;;;;49.72;22.42;;;0.00;99.90;;;;;;5089570;28;20712;-87
2022/12/10 12:14:29;;;;;;;52.13;23.85;;;0.00;99.90;;;;;;5089879;28;20032;-87
2022/12/10 12:17:03;;;;;;;62.67;25.30;;;0.00;99.90;;;;;;5071049;28;20040;-88
2022/12/10 12:19:54;;;;;;;60.45;22.80;;;0.00;99.90;;;;;;5089152;28;20051;-88
2022/12/10 12:22:30;;;;;;;57.53;23.80;;;0.10;99.90;;;;;;5096659;28;20032;-88
2022/12/10 12:25:06;;;;;;;53.38;23.17;;;0.10;99.90;;;;;;5087139;28;20643;-88
2022/12/10 12:27:41;;;;;;;55.75;21.95;;;0.10;99.90;;;;;;5087049;28;20040;-89
2022/12/10 12:30:15;;;;;;;55.20;24.30;;;0.10;99.90;;;;;;5071595;28;20036;-88
2022/12/10 12:33:08;;;;;;;58.47;21.83;;;0.10;99.90;;;;;;5089073;28;20039;-87
2022/12/10 12:35:53;;;;;;;60.03;25.85;;;0.20;99.90;;;;;;5086177;28;20040;-88
2022/12/10 12:38:31;;;;;;;50.53;24.23;;;0.20;99.90;;;;;;5072015;28;20093;-88
2022/12/10 12:41:12;;;;;;;59.13;25.20;;;0.20;99.90;;;;;;5087488;28;20039;-87
2022/12/10 12:43:52;;;;;;;49.17;22.17;;;0.20;99.90;;;;;;5087742;28;20093;-88
2022/12/10 12:46:34;;;;;;;57.45;23.35;;;0.20;99.90;;;;;;5070568;28;20408;-87
2022/12/10 12:49:28;;;;;;;53.83;23.50;;;0.20;99.90;;;;;;5071086;28;20410;-88
2022/12/10 12:52:17;;;;;;;50.03;23.60;;;0.20;99.90;;;;;;5087166;28;20028;-88
2022/12/10 12:54:42;;;;;;;52.33;23.70;;;0.30;99.90;;;;;;5087972;28;20142;-87